createdAt,value
2023-03-21T00:00:28.942Z,10.20
2023-03-21T00:03:01.331Z,10.20
2023-03-21T00:05:28.273Z,10.30
2023-03-21T00:07:55.011Z,10.20
2023-03-21T00:10:33.119Z,10.20
2023-03-21T00:13:05.664Z,10.20
2023-03-21T00:15:41.318Z,10.20
2023-03-21T00:18:13.581Z,10.20
2023-03-21T00:20:40.159Z,10.20
2023-03-21T00:23:15.807Z,10.20
2023-03-21T00:25:42.388Z,10.20
2023-03-21T00:28:08.962Z,10.20
2023-03-21T00:30:35.647Z,10.20
2023-03-21T00:36:06.627Z,10.20
2023-03-21T00:38:34.186Z,10.20
2023-03-21T00:41:11.024Z,10.20
2023-03-21T00:43:44.208Z,10.20
2023-03-21T00:46:10.872Z,10.20
2023-03-21T00:48:37.675Z,10.20
2023-03-21T00:51:12.240Z,10.20
2023-03-21T00:53:38.824Z,10.10
2023-03-21T00:56:05.507Z,10.10
2023-03-21T00:58:32.121Z,10.20
2023-03-21T01:00:58.787Z,10.10
2023-03-21T01:03:26.609Z,10.10
2023-03-21T01:06:05.833Z,10.10
2023-03-21T01:08:48.627Z,10.00
2023-03-21T01:11:19.600Z,10.00
2023-03-21T01:13:53.752Z,10.00
2023-03-21T01:16:22.644Z,10.00
2023-03-21T01:18:49.543Z,9.90
2023-03-21T01:21:16.216Z,10.00
2023-03-21T01:23:43.276Z,9.90
2023-03-21T01:26:11.178Z,9.90
2023-03-21T01:28:38.748Z,10.00
2023-03-21T01:31:05.797Z,9.90
2023-03-21T01:33:33.010Z,10.00
2023-03-21T01:36:10.267Z,10.00
2023-03-21T01:38:39.166Z,9.90
2023-03-21T01:41:17.196Z,10.00
2023-03-21T01:43:46.007Z,9.90
2023-03-21T01:46:22.144Z,9.90
2023-03-21T01:48:51.733Z,10.00
2023-03-21T01:51:19.137Z,9.90
2023-03-21T01:53:47.144Z,9.90
2023-03-21T01:56:23.932Z,9.90
2023-03-21T01:58:52.397Z,9.90
2023-03-21T02:01:22.744Z,9.90
2023-03-21T02:03:50.450Z,9.90
2023-03-21T02:06:28.335Z,9.90
2023-03-21T02:08:54.939Z,9.90
2023-03-21T02:11:22.235Z,9.90
2023-03-21T02:13:53.583Z,9.90
2023-03-21T02:16:33.277Z,9.90
2023-03-21T02:19:25.967Z,9.90
2023-03-21T02:21:56.475Z,9.80
2023-03-21T02:24:48.769Z,9.80
2023-03-21T02:27:24.005Z,9.80
2023-03-21T02:30:04.457Z,9.80
2023-03-21T02:32:37.815Z,9.70
2023-03-21T02:35:23.572Z,9.70
2023-03-21T02:38:16.972Z,9.70
2023-03-21T02:40:52.516Z,9.60
2023-03-21T02:43:24.347Z,9.60
2023-03-21T02:45:53.166Z,9.60
2023-03-21T02:48:31.034Z,9.50
2023-03-21T02:51:00.757Z,9.60
2023-03-21T02:53:30.318Z,9.60
2023-03-21T02:55:57.650Z,9.60
2023-03-21T02:58:25.528Z,9.60
2023-03-21T03:00:55.130Z,9.70
2023-03-21T03:03:33.349Z,9.70
2023-03-21T03:06:02.000Z,9.60
2023-03-21T03:08:41.219Z,9.50
2023-03-21T03:11:30.321Z,9.50
2023-03-21T03:14:21.180Z,9.50
2023-03-21T03:17:03.097Z,9.50
2023-03-21T03:19:36.666Z,9.50
2023-03-21T03:22:16.250Z,9.50
2023-03-21T03:24:47.733Z,9.50
2023-03-21T03:27:17.633Z,9.50
2023-03-21T03:29:46.460Z,9.60
2023-03-21T03:32:15.792Z,9.50
2023-03-21T03:34:44.306Z,9.40
2023-03-21T03:37:14.067Z,9.40
2023-03-21T03:39:43.892Z,9.40
2023-03-21T03:42:27.073Z,9.40
2023-03-21T03:44:54.512Z,9.30
2023-03-21T03:47:34.944Z,9.30
2023-03-21T03:50:09.775Z,9.30
2023-03-21T03:52:55.079Z,9.30
2023-03-21T03:55:23.235Z,9.30
2023-03-21T03:57:49.943Z,9.30
2023-03-21T04:00:17.498Z,9.30
2023-03-21T04:02:45.227Z,9.30
2023-03-21T04:05:12.202Z,9.30
2023-03-21T04:07:39.330Z,9.30
2023-03-21T04:10:06.192Z,9.30
2023-03-21T04:12:32.806Z,9.40
2023-03-21T04:15:09.537Z,9.30
2023-03-21T04:17:38.345Z,9.40
2023-03-21T04:20:12.008Z,9.40
2023-03-21T04:22:41.959Z,9.40
2023-03-21T04:25:09.027Z,9.40
2023-03-21T04:27:35.710Z,9.40
2023-03-21T04:30:03.124Z,9.40
2023-03-21T04:32:33.915Z,9.40
2023-03-21T04:35:02.368Z,9.40
2023-03-21T04:37:29.048Z,9.40
2023-03-21T04:39:55.978Z,9.30
2023-03-21T04:42:22.665Z,9.30
2023-03-21T04:44:49.480Z,9.40
2023-03-21T04:47:16.248Z,9.30
2023-03-21T04:49:43.146Z,9.30
2023-03-21T04:52:09.733Z,9.20
2023-03-21T04:54:36.889Z,9.20
2023-03-21T04:57:04.604Z,9.10
2023-03-21T04:59:31.663Z,9.20
2023-03-21T05:01:58.643Z,9.20
2023-03-21T05:04:26.751Z,9.20
2023-03-21T05:06:54.022Z,9.20
2023-03-21T05:09:22.059Z,9.20
2023-03-21T05:11:49.008Z,9.30
2023-03-21T05:14:17.716Z,9.20
2023-03-21T05:16:56.019Z,9.20
2023-03-21T05:19:24.693Z,9.20
2023-03-21T05:21:51.514Z,9.10
2023-03-21T05:24:20.871Z,9.10
2023-03-21T05:26:52.221Z,9.10
2023-03-21T05:29:19.413Z,9.10
2023-03-21T05:31:46.107Z,9.20
2023-03-21T05:34:13.081Z,9.10
2023-03-21T05:36:39.871Z,9.20
2023-03-21T05:39:06.499Z,9.10
2023-03-21T05:41:33.130Z,9.10
2023-03-21T05:44:00.644Z,9.10
2023-03-21T05:46:27.324Z,9.00
2023-03-21T05:48:54.002Z,9.10
2023-03-21T05:51:20.632Z,9.10
2023-03-21T05:53:47.307Z,9.10
2023-03-21T05:56:13.927Z,9.10
2023-03-21T05:58:40.577Z,9.20
2023-03-21T06:01:07.444Z,9.20
2023-03-21T06:03:34.197Z,9.10
2023-03-21T06:06:00.874Z,9.10
2023-03-21T06:08:27.540Z,9.20
2023-03-21T06:10:55.550Z,9.20
2023-03-21T06:13:22.204Z,9.20
2023-03-21T06:15:48.857Z,9.20
2023-03-21T06:18:15.718Z,9.20
2023-03-21T06:20:42.286Z,9.20
2023-03-21T06:23:09.036Z,9.30
2023-03-21T06:25:35.957Z,9.30
2023-03-21T06:28:02.709Z,9.20
2023-03-21T06:30:29.346Z,9.30
2023-03-21T06:32:56.083Z,9.40
2023-03-21T06:35:22.725Z,9.40
2023-03-21T06:37:49.418Z,9.40
2023-03-21T06:40:16.265Z,9.50
2023-03-21T06:42:42.867Z,9.40
2023-03-21T06:45:09.791Z,9.50
2023-03-21T06:47:36.479Z,9.40
2023-03-21T06:50:03.212Z,9.40
2023-03-21T06:52:29.894Z,9.40
2023-03-21T06:54:56.494Z,9.40
2023-03-21T06:57:23.073Z,9.40
2023-03-21T06:59:49.737Z,9.40
2023-03-21T07:02:16.619Z,9.40
2023-03-21T07:04:43.350Z,9.30
2023-03-21T07:07:10.025Z,9.30
2023-03-21T07:09:36.659Z,9.30
2023-03-21T07:12:51.254Z,9.30
2023-03-21T07:15:18.008Z,9.30
2023-03-21T07:17:44.616Z,9.30
2023-03-21T07:20:12.691Z,9.30
2023-03-21T07:22:39.562Z,9.30
2023-03-21T07:25:07.707Z,9.30
2023-03-21T07:27:34.292Z,9.30
2023-03-21T07:30:01.195Z,9.30
2023-03-21T07:32:29.845Z,9.40
2023-03-21T07:34:56.633Z,9.30
2023-03-21T07:37:23.929Z,9.40
2023-03-21T07:39:51.454Z,9.40
2023-03-21T07:42:18.403Z,9.50
2023-03-21T07:44:45.335Z,9.50
2023-03-21T07:47:11.922Z,9.50
2023-03-21T07:49:38.614Z,9.40
2023-03-21T07:52:06.805Z,9.50
2023-03-21T07:54:33.572Z,9.50
2023-03-21T07:57:00.304Z,9.60
2023-03-21T07:59:26.937Z,9.60
2023-03-21T08:01:53.679Z,9.60
2023-03-21T08:04:20.412Z,9.60
2023-03-21T08:06:47.004Z,9.60
2023-03-21T08:09:13.669Z,9.60
2023-03-21T08:11:40.609Z,9.70
2023-03-21T08:14:07.421Z,9.70
2023-03-21T08:16:34.040Z,9.70
2023-03-21T08:19:00.743Z,9.80
2023-03-21T08:21:27.586Z,9.80
2023-03-21T08:23:54.297Z,9.90
2023-03-21T08:26:21.350Z,9.90
2023-03-21T08:28:47.979Z,9.90
2023-03-21T08:31:15.084Z,9.80
2023-03-21T08:33:41.666Z,9.80
2023-03-21T08:36:08.696Z,9.90
2023-03-21T08:38:35.916Z,10.00
2023-03-21T08:41:02.609Z,10.10
2023-03-21T08:43:29.612Z,10.20
2023-03-21T08:45:56.411Z,10.20
2023-03-21T08:48:23.105Z,10.20
2023-03-21T08:50:49.765Z,10.20
2023-03-21T08:53:16.349Z,10.20
2023-03-21T08:55:43.806Z,10.10
2023-03-21T08:58:11.183Z,10.10
2023-03-21T09:00:37.896Z,10.20
2023-03-21T09:03:04.960Z,10.30
2023-03-21T09:05:31.628Z,10.20
2023-03-21T09:07:58.301Z,10.20
2023-03-21T09:10:24.964Z,10.20
2023-03-21T09:12:52.696Z,10.20
2023-03-21T09:15:21.838Z,10.30
2023-03-21T09:17:52.754Z,10.30
2023-03-21T09:20:30.910Z,10.30
2023-03-21T09:22:58.750Z,10.40
2023-03-21T09:25:25.462Z,10.40
2023-03-21T09:27:52.420Z,10.40
2023-03-21T09:30:20.620Z,10.50
2023-03-21T09:32:49.344Z,10.40
2023-03-21T09:35:18.529Z,10.50
2023-03-21T09:37:45.876Z,10.60
2023-03-21T09:40:31.326Z,10.50
2023-03-21T09:43:07.554Z,10.50
2023-03-21T09:45:45.507Z,10.50
2023-03-21T09:48:30.227Z,10.50
2023-03-21T09:50:57.833Z,10.50
2023-03-21T09:53:35.413Z,10.50
2023-03-21T09:56:02.411Z,10.60
2023-03-21T09:58:53.193Z,10.60
2023-03-21T10:01:28.228Z,10.60
2023-03-21T10:03:55.980Z,10.70
2023-03-21T10:06:31.769Z,10.60
2023-03-21T10:09:22.855Z,10.60
2023-03-21T10:11:51.591Z,10.70
2023-03-21T10:14:25.500Z,10.70
2023-03-21T10:16:53.824Z,10.70
2023-03-21T10:19:20.539Z,10.60
2023-03-21T10:22:00.114Z,10.70
2023-03-21T10:24:28.453Z,10.70
2023-03-21T10:26:55.968Z,10.80
2023-03-21T10:29:25.707Z,11.10
2023-03-21T10:31:53.068Z,11.20
2023-03-21T10:34:34.325Z,11.20
2023-03-21T10:37:02.449Z,11.30
2023-03-21T10:39:29.083Z,11.50
2023-03-21T10:41:55.986Z,11.70
2023-03-21T10:44:28.455Z,11.80
2023-03-21T10:46:56.721Z,11.80
2023-03-21T10:49:25.398Z,11.80
2023-03-21T10:51:53.834Z,11.70
2023-03-21T10:54:22.095Z,11.70
2023-03-21T10:57:00.621Z,11.60
2023-03-21T10:59:29.188Z,11.60
2023-03-21T11:01:56.481Z,11.70
2023-03-21T11:04:27.779Z,11.80
2023-03-21T11:06:55.667Z,11.90
2023-03-21T11:09:24.958Z,11.90
2023-03-21T11:12:01.635Z,11.90
2023-03-21T11:14:28.194Z,11.80
2023-03-21T11:16:54.908Z,11.80
2023-03-21T11:19:29.001Z,11.80
2023-03-21T11:21:56.953Z,11.70
2023-03-21T11:24:23.718Z,11.70
2023-03-21T11:26:51.308Z,11.60
2023-03-21T11:29:29.463Z,11.60
2023-03-21T11:32:09.745Z,11.70
2023-03-21T11:34:44.668Z,11.80
2023-03-21T11:37:18.826Z,11.90
2023-03-21T11:39:45.656Z,11.90
2023-03-21T11:42:44.962Z,12.00
2023-03-21T11:45:22.108Z,12.00
2023-03-21T11:47:50.625Z,12.10
2023-03-21T11:50:30.548Z,12.20
2023-03-21T11:52:57.145Z,12.30
2023-03-21T11:55:37.969Z,12.50
2023-03-21T11:58:27.427Z,12.50
2023-03-21T12:01:06.134Z,12.60
2023-03-21T12:03:48.587Z,12.60
2023-03-21T12:06:24.826Z,12.50
2023-03-21T12:09:10.268Z,12.50
2023-03-21T12:11:49.921Z,12.50
2023-03-21T12:14:29.086Z,12.40
2023-03-21T12:16:58.753Z,12.50
2023-03-21T12:19:31.608Z,12.60
2023-03-21T12:22:07.525Z,12.60
2023-03-21T12:24:51.448Z,12.80
2023-03-21T12:27:44.030Z,12.80
2023-03-21T12:30:19.605Z,12.90
2023-03-21T12:33:05.230Z,13.20
2023-03-21T12:35:34.901Z,13.40
2023-03-21T12:38:01.992Z,13.50
2023-03-21T12:40:28.626Z,13.60
2023-03-21T12:43:04.541Z,13.90
2023-03-21T12:45:45.862Z,13.80
2023-03-21T12:48:13.587Z,13.80
2023-03-21T12:50:40.392Z,13.70
2023-03-21T12:53:13.198Z,13.70
2023-03-21T12:55:40.988Z,13.70
2023-03-21T12:58:13.699Z,13.60
2023-03-21T13:00:40.567Z,13.50
2023-03-21T13:03:27.656Z,13.40
2023-03-21T13:06:06.807Z,13.30
2023-03-21T13:08:36.595Z,13.40
2023-03-21T13:11:04.874Z,13.40
2023-03-21T13:13:49.634Z,13.30
2023-03-21T13:16:36.636Z,13.30
2023-03-21T13:19:03.460Z,13.20
2023-03-21T13:21:45.265Z,13.20
2023-03-21T13:24:19.812Z,13.20
2023-03-21T13:26:49.947Z,13.10
2023-03-21T13:29:25.432Z,13.10
2023-03-21T13:31:55.854Z,13.10
2023-03-21T13:34:24.276Z,13.10
2023-03-21T13:36:51.574Z,13.10
2023-03-21T13:39:24.919Z,13.10
2023-03-21T13:41:51.614Z,13.00
2023-03-21T13:44:31.928Z,12.90
2023-03-21T13:47:03.637Z,12.90
2023-03-21T13:49:32.455Z,13.00
2023-03-21T13:52:00.545Z,13.10
2023-03-21T13:54:30.070Z,13.00
2023-03-21T13:57:00.020Z,13.10
2023-03-21T13:59:41.616Z,13.20
2023-03-21T14:02:26.841Z,13.20
2023-03-21T14:05:16.828Z,13.10
2023-03-21T14:07:45.372Z,13.10
2023-03-21T14:10:21.229Z,13.00
2023-03-21T14:12:48.499Z,12.90
2023-03-21T14:15:19.237Z,12.80
2023-03-21T14:17:53.712Z,12.80
2023-03-21T14:20:24.584Z,12.80
2023-03-21T14:22:51.305Z,12.90
2023-03-21T14:25:19.574Z,13.00
2023-03-21T14:27:50.703Z,13.00
2023-03-21T14:30:22.831Z,13.00
2023-03-21T14:32:49.528Z,13.00
2023-03-21T14:35:16.474Z,13.10
2023-03-21T14:37:45.717Z,13.00
2023-03-21T14:40:25.500Z,13.10
2023-03-21T14:42:52.154Z,13.10
2023-03-21T14:45:27.090Z,13.10
2023-03-21T14:48:04.058Z,13.10
2023-03-21T14:50:34.486Z,13.10
2023-03-21T14:53:01.385Z,13.10
2023-03-21T14:55:28.226Z,13.10
2023-03-21T14:57:55.929Z,13.10
2023-03-21T15:00:27.372Z,13.10
2023-03-21T15:02:54.896Z,13.10
2023-03-21T15:05:37.461Z,13.10
2023-03-21T15:08:23.782Z,13.10
2023-03-21T15:11:06.322Z,13.20
2023-03-21T15:13:35.364Z,13.20
2023-03-21T15:16:02.376Z,13.10
2023-03-21T15:18:32.037Z,13.00
2023-03-21T15:21:03.240Z,13.00
2023-03-21T15:23:29.823Z,13.00
2023-03-21T15:25:56.498Z,13.00
2023-03-21T15:28:25.562Z,13.00
2023-03-21T15:30:53.396Z,13.00
2023-03-21T15:33:20.660Z,13.00
2023-03-21T15:35:57.849Z,13.00
2023-03-21T15:38:36.646Z,13.10
2023-03-21T15:41:21.568Z,13.10
2023-03-21T15:43:53.698Z,13.20
2023-03-21T15:46:40.334Z,13.10
2023-03-21T15:49:08.685Z,13.10
2023-03-21T15:51:35.467Z,13.10
2023-03-21T15:54:02.746Z,13.10
2023-03-21T15:56:34.567Z,13.00
2023-03-21T15:59:02.365Z,13.10
2023-03-21T16:01:38.807Z,13.10
2023-03-21T16:04:09.637Z,13.10
2023-03-21T16:06:38.101Z,13.00
2023-03-21T16:09:23.368Z,13.00
2023-03-21T16:11:56.834Z,13.10
2023-03-21T16:14:24.198Z,13.10
2023-03-21T16:16:51.027Z,13.00
2023-03-21T16:19:17.744Z,13.00
2023-03-21T16:21:44.366Z,13.00
2023-03-21T16:24:12.324Z,13.00
2023-03-21T16:26:42.520Z,13.10
2023-03-21T16:29:12.146Z,13.10
2023-03-21T16:31:38.824Z,13.10
2023-03-21T16:34:05.746Z,13.10
2023-03-21T16:36:33.817Z,13.10
2023-03-21T16:39:00.421Z,13.10
2023-03-21T16:41:27.531Z,13.10
2023-03-21T16:43:54.613Z,13.10
2023-03-21T16:46:23.068Z,13.00
2023-03-21T16:48:56.891Z,13.00
2023-03-21T16:51:29.684Z,13.00
2023-03-21T16:53:57.213Z,13.00
2023-03-21T16:56:28.821Z,13.10
2023-03-21T16:58:56.583Z,13.10
2023-03-21T17:01:27.568Z,13.10
2023-03-21T17:03:54.244Z,13.10
2023-03-21T17:06:22.243Z,13.00
2023-03-21T17:08:49.041Z,13.00
2023-03-21T17:11:16.832Z,13.00
2023-03-21T17:13:43.814Z,13.00
2023-03-21T17:16:14.907Z,13.00
2023-03-21T17:18:42.689Z,13.10
2023-03-21T17:21:13.942Z,13.10
2023-03-21T17:23:40.757Z,13.00
2023-03-21T17:26:10.588Z,13.10
2023-03-21T17:28:37.965Z,13.10
2023-03-21T17:31:06.588Z,13.00
2023-03-21T17:33:33.271Z,13.00
2023-03-21T17:35:59.886Z,13.00
2023-03-21T17:38:26.513Z,13.10
2023-03-21T17:40:53.094Z,13.10
2023-03-21T17:43:20.790Z,13.10
2023-03-21T17:45:47.450Z,13.10
2023-03-21T17:48:14.183Z,13.00
2023-03-21T17:50:41.309Z,13.00
2023-03-21T17:53:08.112Z,13.10
2023-03-21T17:55:35.101Z,13.10
2023-03-21T17:58:02.113Z,13.00
2023-03-21T18:00:30.276Z,13.00
2023-03-21T18:02:57.221Z,13.10
2023-03-21T18:05:27.651Z,13.00
2023-03-21T18:08:09.887Z,13.00
2023-03-21T18:10:38.527Z,13.00
2023-03-21T18:13:05.239Z,13.10
2023-03-21T18:15:32.257Z,13.10
2023-03-21T18:17:59.092Z,13.10
2023-03-21T18:20:50.507Z,13.10
2023-03-21T18:23:18.609Z,13.10
2023-03-21T18:25:45.352Z,13.00
2023-03-21T18:28:12.913Z,13.00
2023-03-21T18:31:04.850Z,13.00
2023-03-21T18:33:27.350Z,13.00
2023-03-21T18:35:59.051Z,13.00
2023-03-21T18:38:27.436Z,13.00
2023-03-21T18:40:54.479Z,13.00
2023-03-21T18:46:08.618Z,13.00
2023-03-21T18:48:35.873Z,13.00
2023-03-21T18:51:02.823Z,13.00
2023-03-21T18:53:29.941Z,13.10
2023-03-21T18:55:57.413Z,13.00
2023-03-21T18:58:24.814Z,13.00
2023-03-21T19:00:53.401Z,13.00
2023-03-21T19:03:34.859Z,13.00
2023-03-21T19:06:03.939Z,12.90
2023-03-21T19:08:31.118Z,13.00
2023-03-21T19:11:00.282Z,13.00
2023-03-21T19:13:28.241Z,13.00
2023-03-21T19:15:56.170Z,13.00
2023-03-21T19:18:53.604Z,13.00
2023-03-21T19:21:09.541Z,12.90
2023-03-21T19:24:07.899Z,12.90
2023-03-21T19:26:23.740Z,12.80
2023-03-21T19:28:50.420Z,12.80
2023-03-21T19:31:17.922Z,12.70
2023-03-21T19:33:44.560Z,12.70
2023-03-21T19:36:21.106Z,12.60
2023-03-21T19:38:49.172Z,12.60
2023-03-21T19:41:16.283Z,12.60
2023-03-21T19:43:53.191Z,12.50
2023-03-21T19:46:23.083Z,12.50
2023-03-21T19:48:50.219Z,12.40
2023-03-21T19:51:32.991Z,12.40
2023-03-21T19:54:00.235Z,12.40
2023-03-21T19:56:27.876Z,12.40
2023-03-21T19:58:55.571Z,12.40
2023-03-21T20:01:23.825Z,12.30
2023-03-21T20:03:51.461Z,12.30
2023-03-21T20:06:18.467Z,12.30
2023-03-21T20:11:32.037Z,12.30
2023-03-21T20:13:59.816Z,12.30
2023-03-21T20:16:33.586Z,12.30
2023-03-21T20:19:01.077Z,12.20
2023-03-21T20:21:33.290Z,12.20
2023-03-21T20:24:04.384Z,12.20
2023-03-21T20:26:31.242Z,12.20
2023-03-21T20:29:28.004Z,12.20
2023-03-21T20:31:44.563Z,12.20
2023-03-21T20:34:13.803Z,12.10
2023-03-21T20:36:43.348Z,12.10
2023-03-21T20:39:10.385Z,12.10
2023-03-21T20:41:37.194Z,12.10
2023-03-21T20:46:51.134Z,12.10
2023-03-21T20:49:19.988Z,12.10
2023-03-21T20:52:49.453Z,12.10
2023-03-21T20:54:34.805Z,12.10
2023-03-21T20:57:01.573Z,12.10
2023-03-21T20:59:29.272Z,12.00
2023-03-21T21:01:57.254Z,12.00
2023-03-21T21:04:41.288Z,12.00
2023-03-21T21:07:12.510Z,12.00
2023-03-21T21:09:39.988Z,11.90
2023-03-21T21:12:08.386Z,11.90
2023-03-21T21:14:35.784Z,11.90
2023-03-21T21:17:15.499Z,12.00
2023-03-21T21:19:51.948Z,12.00
2023-03-21T21:22:18.610Z,11.90
2023-03-21T21:24:45.250Z,11.90
2023-03-21T21:27:11.962Z,11.90
2023-03-21T21:29:38.661Z,11.90
2023-03-21T21:32:05.353Z,11.90
2023-03-21T21:34:32.113Z,11.90
2023-03-21T21:36:58.806Z,11.90
2023-03-21T21:39:26.545Z,11.90
2023-03-21T21:41:53.750Z,11.90
2023-03-21T21:44:20.728Z,11.80
2023-03-21T21:46:47.382Z,11.80
2023-03-21T21:49:14.106Z,11.80
2023-03-21T21:51:41.846Z,11.80
2023-03-21T21:54:08.578Z,11.80
2023-03-21T21:56:37.540Z,11.80
2023-03-21T21:59:04.653Z,11.70
2023-03-21T22:01:34.542Z,11.70
2023-03-21T22:04:08.186Z,11.70
2023-03-21T22:06:35.013Z,11.70
2023-03-21T22:09:02.718Z,11.60
2023-03-21T22:11:29.317Z,11.60
2023-03-21T22:13:56.206Z,11.60
2023-03-21T22:16:23.082Z,11.60
2023-03-21T22:18:49.652Z,11.60
2023-03-21T22:21:16.454Z,11.60
2023-03-21T22:23:43.327Z,11.70
2023-03-21T22:26:10.577Z,11.60
2023-03-21T22:28:40.068Z,11.50
2023-03-21T22:31:11.679Z,11.50
2023-03-21T22:33:40.223Z,11.60
2023-03-21T22:36:07.050Z,11.60
2023-03-21T22:38:34.584Z,11.60
2023-03-21T22:41:02.160Z,11.60
2023-03-21T22:43:29.309Z,11.60
2023-03-21T22:45:56.022Z,11.60
2023-03-21T22:48:22.860Z,11.60
2023-03-21T22:50:49.602Z,11.60
2023-03-21T22:53:16.198Z,11.50
2023-03-21T22:55:42.954Z,11.50
2023-03-21T22:58:09.541Z,11.50
2023-03-21T23:00:36.265Z,11.50
2023-03-21T23:03:02.968Z,11.40
2023-03-21T23:05:29.583Z,11.40
2023-03-21T23:07:56.201Z,11.30
2023-03-21T23:10:22.858Z,11.30
2023-03-21T23:12:49.571Z,11.40
2023-03-21T23:15:16.241Z,11.30
2023-03-21T23:17:44.096Z,11.30
2023-03-21T23:20:10.942Z,11.30
2023-03-21T23:22:37.599Z,11.40
2023-03-21T23:25:04.439Z,11.40
2023-03-21T23:27:31.045Z,11.40
2023-03-21T23:29:57.734Z,11.40
2023-03-21T23:32:24.433Z,11.40
2023-03-21T23:34:51.066Z,11.40
2023-03-21T23:37:17.722Z,11.30
2023-03-21T23:39:45.312Z,11.30
2023-03-21T23:42:12.038Z,11.30
2023-03-21T23:44:38.648Z,11.30
2023-03-21T23:47:05.275Z,11.30
2023-03-21T23:49:33.732Z,11.30
2023-03-21T23:52:00.627Z,11.20
2023-03-21T23:54:27.274Z,11.20
2023-03-21T23:56:53.864Z,11.20
2023-03-21T23:59:20.436Z,11.10
